createdAt,value
2023-05-19T00:02:09.634Z,7.80
2023-05-19T00:04:44.995Z,8.60
2023-05-19T00:07:24.645Z,10.50
2023-05-19T00:10:00.420Z,9.80
2023-05-19T00:12:37.892Z,7.70
2023-05-19T00:15:16.435Z,8.40
2023-05-19T00:17:52.526Z,9.20
2023-05-19T00:20:27.548Z,9.10
2023-05-19T00:23:01.755Z,7.20
2023-05-19T00:25:36.155Z,8.50
2023-05-19T00:28:10.652Z,7.90
2023-05-19T00:30:45.070Z,7.90
2023-05-19T00:33:19.410Z,8.30
2023-05-19T00:35:54.033Z,10.20
2023-05-19T00:38:28.410Z,8.10
2023-05-19T00:41:03.783Z,6.90
2023-05-19T00:43:38.493Z,9.40
2023-05-19T00:46:12.812Z,6.90
2023-05-19T00:48:47.077Z,11.50
2023-05-19T00:51:21.978Z,6.80
2023-05-19T00:53:56.808Z,6.20
2023-05-19T00:56:32.717Z,7.10
2023-05-19T00:59:08.008Z,9.10
2023-05-19T01:01:42.430Z,7.60
2023-05-19T01:04:17.207Z,9.00
2023-05-19T01:06:55.178Z,10.50
2023-05-19T01:09:30.783Z,8.20
2023-05-19T01:12:05.704Z,6.60
2023-05-19T01:14:39.988Z,10.10
2023-05-19T01:17:27.362Z,9.10
2023-05-19T01:20:16.320Z,6.90
2023-05-19T01:23:26.149Z,9.40
2023-05-19T01:26:32.374Z,10.90
2023-05-19T01:29:33.514Z,10.60
2023-05-19T01:32:10.801Z,7.20
2023-05-19T01:34:50.748Z,8.50
2023-05-19T01:37:27.422Z,6.70
2023-05-19T01:40:02.270Z,7.60
2023-05-19T01:42:40.181Z,7.60
2023-05-19T01:45:16.939Z,6.70
2023-05-19T01:47:57.038Z,10.00
2023-05-19T01:50:32.411Z,8.10
2023-05-19T01:53:07.033Z,8.70
2023-05-19T01:55:49.736Z,8.20
2023-05-19T01:58:39.293Z,7.40
2023-05-19T02:01:32.058Z,8.80
2023-05-19T02:04:28.385Z,9.20
2023-05-19T02:07:13.410Z,7.10
2023-05-19T02:10:04.220Z,6.90
2023-05-19T02:12:42.186Z,7.10
2023-05-19T02:15:23.534Z,8.40
2023-05-19T02:18:00.323Z,7.60
2023-05-19T02:20:35.555Z,6.90
2023-05-19T02:23:09.856Z,7.40
2023-05-19T02:25:44.611Z,8.70
2023-05-19T02:28:18.920Z,6.30
2023-05-19T02:30:53.288Z,8.00
2023-05-19T02:33:30.508Z,7.30
2023-05-19T02:36:05.084Z,8.90
2023-05-19T02:38:39.251Z,9.10
2023-05-19T02:41:13.452Z,8.60
2023-05-19T02:43:47.947Z,7.10
2023-05-19T02:46:22.455Z,8.10
2023-05-19T02:48:58.131Z,10.00
2023-05-19T02:51:32.372Z,10.20
2023-05-19T02:54:06.763Z,7.40
2023-05-19T02:56:41.250Z,11.00
2023-05-19T02:59:15.881Z,10.60
2023-05-19T03:01:50.680Z,10.30
2023-05-19T03:04:25.538Z,10.00
2023-05-19T03:06:59.865Z,9.20
2023-05-19T03:09:34.099Z,10.30
2023-05-19T03:12:09.656Z,11.30
2023-05-19T03:14:44.683Z,8.30
2023-05-19T03:17:18.883Z,10.10
2023-05-19T03:19:53.259Z,10.30
2023-05-19T03:22:27.440Z,11.90
2023-05-19T03:25:01.859Z,9.50
2023-05-19T03:27:36.484Z,8.90
2023-05-19T03:30:14.626Z,10.10
2023-05-19T03:33:01.781Z,10.10
2023-05-19T03:35:36.210Z,9.00
2023-05-19T03:38:10.580Z,10.00
2023-05-19T03:40:45.162Z,10.50
2023-05-19T03:43:19.651Z,8.90
2023-05-19T03:45:59.175Z,10.40
2023-05-19T03:48:52.337Z,8.50
2023-05-19T03:51:34.991Z,9.40
2023-05-19T03:54:26.286Z,8.80
2023-05-19T03:57:00.612Z,11.40
2023-05-19T03:59:35.572Z,7.60
2023-05-19T04:02:11.573Z,7.70
2023-05-19T04:04:46.509Z,8.70
2023-05-19T04:07:20.766Z,9.00
2023-05-19T04:09:55.673Z,9.70
2023-05-19T04:12:30.381Z,8.80
2023-05-19T04:15:05.946Z,7.50
2023-05-19T04:17:40.853Z,10.00
2023-05-19T04:20:17.171Z,8.50
2023-05-19T04:22:51.911Z,8.10
2023-05-19T04:25:28.410Z,10.60
2023-05-19T04:28:03.415Z,8.00
2023-05-19T04:30:38.841Z,7.60
2023-05-19T04:33:13.580Z,6.30
2023-05-19T04:35:47.882Z,7.20
2023-05-19T04:38:22.489Z,10.80
2023-05-19T04:40:56.950Z,6.60
2023-05-19T04:43:31.744Z,10.30
2023-05-19T04:46:06.845Z,8.20
2023-05-19T04:48:41.605Z,7.50
2023-05-19T04:51:16.116Z,7.70
2023-05-19T04:53:51.812Z,8.70
2023-05-19T04:56:27.591Z,6.90
2023-05-19T04:59:02.815Z,10.00
2023-05-19T05:01:40.971Z,8.30
2023-05-19T05:04:17.148Z,6.50
2023-05-19T05:06:51.519Z,7.30
2023-05-19T05:09:26.394Z,7.90
2023-05-19T05:12:02.545Z,6.60
2023-05-19T05:14:40.302Z,10.30
2023-05-19T05:17:17.752Z,7.70
2023-05-19T05:19:54.243Z,7.10
2023-05-19T05:22:30.201Z,7.70
2023-05-19T05:25:07.999Z,7.90
2023-05-19T05:27:44.050Z,6.70
2023-05-19T05:30:18.919Z,6.30
2023-05-19T05:32:54.517Z,6.80
2023-05-19T05:35:37.228Z,10.10
2023-05-19T05:38:12.403Z,7.60
2023-05-19T05:40:47.133Z,6.00
2023-05-19T05:43:21.723Z,7.50
2023-05-19T05:46:01.344Z,8.00
2023-05-19T05:48:42.107Z,5.60
2023-05-19T05:51:18.109Z,6.60
2023-05-19T05:53:58.935Z,5.40
2023-05-19T05:56:41.355Z,7.40
2023-05-19T05:59:16.938Z,4.90
2023-05-19T06:01:51.440Z,5.10
2023-05-19T06:04:27.130Z,5.70
2023-05-19T06:07:02.229Z,6.50
2023-05-19T06:09:40.407Z,5.30
2023-05-19T06:12:15.074Z,6.30
2023-05-19T06:14:53.324Z,5.80
2023-05-19T06:17:48.193Z,6.20
2023-05-19T06:20:23.125Z,5.80
2023-05-19T06:22:57.991Z,7.10
2023-05-19T06:25:33.383Z,6.00
2023-05-19T06:28:08.306Z,6.10
2023-05-19T06:30:42.764Z,5.40
2023-05-19T06:33:29.340Z,5.90
2023-05-19T06:36:04.938Z,5.90
2023-05-19T06:38:42.512Z,4.90
2023-05-19T06:41:17.395Z,5.90
2023-05-19T06:43:54.503Z,6.50
2023-05-19T06:46:29.650Z,4.10
2023-05-19T06:49:04.324Z,5.70
2023-05-19T06:51:41.432Z,4.90
2023-05-19T06:54:16.500Z,5.40
2023-05-19T06:56:51.170Z,4.50
2023-05-19T06:59:25.443Z,5.90
2023-05-19T07:02:00.068Z,5.10
2023-05-19T07:04:34.809Z,4.80
2023-05-19T07:07:09.498Z,5.80
2023-05-19T07:09:44.149Z,6.10
2023-05-19T07:12:18.956Z,4.50
2023-05-19T07:14:54.076Z,5.20
2023-05-19T07:17:28.724Z,5.40
2023-05-19T07:20:06.960Z,5.00
2023-05-19T07:22:41.561Z,5.60
2023-05-19T07:25:16.568Z,5.70
2023-05-19T07:27:52.311Z,7.10
2023-05-19T07:30:27.995Z,5.10
2023-05-19T07:33:02.365Z,6.50
2023-05-19T07:35:36.943Z,5.10
2023-05-19T07:38:11.496Z,6.00
2023-05-19T07:40:46.122Z,5.80
2023-05-19T07:43:20.717Z,5.70
2023-05-19T07:45:56.503Z,6.70
2023-05-19T07:48:31.205Z,7.30
2023-05-19T07:51:06.083Z,5.50
2023-05-19T07:53:40.859Z,4.20
2023-05-19T07:56:15.528Z,5.10
2023-05-19T07:58:50.200Z,5.70
2023-05-19T08:01:24.840Z,5.00
2023-05-19T08:03:59.796Z,7.70
2023-05-19T08:06:35.349Z,6.60
2023-05-19T08:09:12.698Z,5.50
2023-05-19T08:11:49.921Z,5.50
2023-05-19T08:14:24.942Z,6.10
2023-05-19T08:16:59.692Z,5.50
2023-05-19T08:19:34.258Z,6.90
2023-05-19T08:22:09.801Z,5.60
2023-05-19T08:24:44.878Z,6.10
2023-05-19T08:27:19.668Z,8.40
2023-05-19T08:29:55.516Z,6.80
2023-05-19T08:32:30.794Z,7.10
2023-05-19T08:35:05.313Z,7.60
2023-05-19T08:37:40.029Z,5.90
2023-05-19T08:40:20.425Z,6.00
2023-05-19T08:42:55.593Z,7.60
2023-05-19T08:45:30.735Z,6.50
2023-05-19T08:48:07.073Z,6.40
2023-05-19T08:50:49.365Z,4.80
2023-05-19T08:53:34.348Z,5.50
2023-05-19T08:56:16.688Z,5.20
2023-05-19T08:58:52.752Z,6.00
2023-05-19T09:01:50.650Z,6.90
2023-05-19T09:04:30.184Z,4.90
2023-05-19T09:07:05.212Z,5.40
2023-05-19T09:09:43.131Z,4.50
2023-05-19T09:12:18.920Z,4.60
2023-05-19T09:14:53.851Z,4.90
2023-05-19T09:17:28.825Z,5.40
2023-05-19T09:20:11.473Z,6.30
2023-05-19T09:22:48.507Z,6.70
2023-05-19T09:25:27.237Z,5.50
2023-05-19T09:28:01.675Z,5.00
2023-05-19T09:30:36.480Z,5.20
2023-05-19T09:33:11.701Z,7.60
2023-05-19T09:35:51.598Z,7.30
2023-05-19T09:38:27.191Z,5.10
2023-05-19T09:41:03.390Z,6.40
2023-05-19T09:43:39.374Z,6.60
2023-05-19T09:46:15.927Z,6.10
2023-05-19T09:48:50.801Z,4.70
2023-05-19T09:51:25.830Z,8.50
2023-05-19T09:54:01.825Z,5.70
2023-05-19T09:56:39.642Z,7.50
2023-05-19T09:59:19.348Z,5.60
2023-05-19T10:01:57.093Z,5.30
2023-05-19T10:04:33.555Z,7.00
2023-05-19T10:07:11.644Z,5.20
2023-05-19T10:09:47.490Z,4.90
2023-05-19T10:12:24.557Z,5.60
2023-05-19T10:15:00.602Z,6.30
2023-05-19T10:17:37.278Z,6.90
2023-05-19T10:20:17.250Z,5.90
2023-05-19T10:22:52.482Z,9.50
2023-05-19T10:25:32.541Z,5.00
2023-05-19T10:28:13.211Z,5.60
2023-05-19T10:30:54.998Z,6.60
2023-05-19T10:34:02.549Z,7.00
2023-05-19T10:36:51.789Z,6.80
2023-05-19T10:39:36.522Z,5.70
2023-05-19T10:42:26.649Z,6.30
2023-05-19T10:45:15.046Z,8.20
2023-05-19T10:47:51.980Z,7.30
2023-05-19T10:50:30.193Z,6.10
2023-05-19T10:53:06.288Z,8.40
2023-05-19T10:55:59.155Z,7.70
2023-05-19T10:58:53.845Z,7.70
2023-05-19T11:01:36.207Z,6.20
2023-05-19T11:04:14.977Z,5.90
2023-05-19T11:06:55.935Z,7.20
2023-05-19T11:09:40.066Z,7.10
2023-05-19T11:12:20.993Z,7.90
2023-05-19T11:15:01.616Z,7.40
2023-05-19T11:17:37.849Z,7.30
2023-05-19T11:20:24.185Z,9.60
2023-05-19T11:23:18.136Z,6.60
2023-05-19T11:25:55.626Z,8.10
2023-05-19T11:28:31.121Z,7.10
2023-05-19T11:31:10.471Z,7.40
2023-05-19T11:33:45.462Z,6.70
2023-05-19T11:36:21.820Z,10.30
2023-05-19T11:38:57.228Z,6.50
2023-05-19T11:41:31.966Z,6.40
2023-05-19T11:44:10.809Z,7.10
2023-05-19T11:46:46.982Z,6.30
2023-05-19T11:49:21.664Z,7.80
2023-05-19T11:51:57.544Z,6.90
2023-05-19T11:54:37.488Z,6.90
2023-05-19T11:57:14.113Z,7.20
2023-05-19T11:59:50.007Z,6.70
2023-05-19T12:02:27.858Z,6.80
2023-05-19T12:05:02.518Z,7.30
2023-05-19T12:07:39.574Z,9.00
2023-05-19T12:10:16.180Z,6.60
2023-05-19T12:12:51.540Z,7.10
2023-05-19T12:15:26.931Z,6.60
2023-05-19T12:18:04.482Z,6.10
2023-05-19T12:20:39.610Z,8.20
2023-05-19T12:23:27.773Z,7.20
2023-05-19T12:26:05.046Z,6.90
2023-05-19T12:28:47.338Z,6.60
2023-05-19T12:31:24.135Z,7.80
2023-05-19T12:33:58.932Z,9.40
2023-05-19T12:36:34.905Z,10.60
2023-05-19T12:39:10.334Z,9.00
2023-05-19T12:41:49.219Z,8.70
2023-05-19T12:44:23.646Z,9.10
2023-05-19T12:47:00.845Z,8.80
2023-05-19T12:49:40.348Z,10.00
2023-05-19T12:52:18.778Z,10.90
2023-05-19T12:55:02.434Z,52.20
2023-05-19T12:57:40.484Z,12.80
2023-05-19T13:00:22.941Z,13.90
2023-05-19T13:03:05.961Z,8.90
2023-05-19T13:05:43.824Z,9.90
2023-05-19T13:08:24.091Z,9.00
2023-05-19T13:11:01.253Z,8.30
2023-05-19T13:13:35.864Z,9.00
2023-05-19T13:16:11.505Z,8.70
2023-05-19T13:18:45.803Z,7.70
2023-05-19T13:21:21.082Z,10.80
2023-05-19T13:23:55.922Z,8.60
2023-05-19T13:26:30.269Z,8.90
2023-05-19T13:29:04.966Z,9.00
2023-05-19T13:31:39.759Z,10.60
2023-05-19T13:34:14.914Z,10.70
2023-05-19T13:36:50.424Z,10.10
2023-05-19T13:39:28.219Z,10.70
2023-05-19T13:42:05.115Z,9.90
2023-05-19T13:44:39.602Z,9.20
2023-05-19T13:47:14.673Z,13.20
2023-05-19T13:49:50.685Z,12.10
2023-05-19T13:52:27.555Z,11.30
2023-05-19T13:55:17.989Z,11.90
2023-05-19T13:57:53.876Z,12.90
2023-05-19T14:00:28.617Z,12.40
2023-05-19T14:03:03.246Z,14.10
2023-05-19T14:05:38.820Z,13.50
2023-05-19T14:08:13.636Z,18.70
2023-05-19T14:10:52.484Z,12.90
2023-05-19T14:13:33.669Z,14.40
2023-05-19T14:16:12.067Z,13.80
2023-05-19T14:18:47.277Z,13.60
2023-05-19T14:21:22.367Z,11.90
2023-05-19T14:23:58.502Z,13.40
2023-05-19T14:26:33.345Z,12.40
2023-05-19T14:29:08.836Z,13.50
2023-05-19T14:31:43.444Z,15.60
2023-05-19T14:34:21.553Z,13.30
2023-05-19T14:36:56.925Z,12.80
2023-05-19T14:39:32.515Z,14.40
2023-05-19T14:42:08.166Z,15.50
2023-05-19T14:44:42.979Z,15.00
2023-05-19T14:47:17.931Z,13.20
2023-05-19T14:49:52.730Z,15.40
2023-05-19T14:52:27.608Z,15.70
2023-05-19T14:55:59.695Z,16.10
2023-05-19T14:58:36.072Z,13.60
2023-05-19T15:01:12.256Z,14.50
2023-05-19T15:03:47.096Z,13.70
2023-05-19T15:06:22.442Z,15.10
2023-05-19T15:08:57.039Z,16.80
2023-05-19T15:11:31.772Z,16.40
2023-05-19T15:14:06.593Z,17.90
2023-05-19T15:16:41.543Z,16.80
2023-05-19T15:19:17.190Z,13.00
2023-05-19T15:22:19.678Z,20.80
2023-05-19T15:24:54.137Z,17.70
2023-05-19T15:27:30.471Z,15.40
2023-05-19T15:30:05.530Z,12.60
2023-05-19T15:32:44.564Z,13.50
2023-05-19T15:35:19.700Z,11.80
2023-05-19T15:37:56.183Z,13.20
2023-05-19T15:40:32.467Z,12.50
2023-05-19T15:43:07.284Z,12.40
2023-05-19T15:45:42.128Z,12.30
2023-05-19T15:48:16.794Z,11.70
2023-05-19T15:50:52.151Z,13.50
2023-05-19T15:53:26.767Z,12.60
2023-05-19T15:56:02.160Z,13.80
2023-05-19T15:58:39.245Z,11.60
2023-05-19T16:01:14.355Z,22.30
2023-05-19T16:03:49.613Z,12.60
2023-05-19T16:06:25.224Z,12.70
2023-05-19T16:08:59.576Z,13.00
2023-05-19T16:11:34.460Z,12.00
2023-05-19T16:14:09.123Z,14.30
2023-05-19T16:16:44.829Z,11.50
2023-05-19T16:19:19.914Z,11.70
2023-05-19T16:21:54.492Z,11.40
2023-05-19T16:24:29.530Z,10.40
2023-05-19T16:27:05.071Z,13.10
2023-05-19T16:29:40.127Z,12.40
2023-05-19T16:32:14.520Z,14.40
2023-05-19T16:34:49.507Z,11.60
2023-05-19T16:38:07.868Z,12.60
2023-05-19T16:40:42.507Z,11.80
2023-05-19T16:43:16.808Z,11.10
2023-05-19T16:45:51.187Z,12.90
2023-05-19T16:48:25.570Z,11.60
2023-05-19T16:50:59.944Z,12.70
2023-05-19T16:53:34.398Z,15.70
2023-05-19T16:56:09.396Z,14.10
2023-05-19T16:58:43.597Z,15.60
2023-05-19T17:01:18.040Z,13.70
2023-05-19T17:03:52.625Z,13.10
2023-05-19T17:06:29.817Z,13.80
2023-05-19T17:09:04.316Z,14.20
2023-05-19T17:11:38.930Z,11.10
2023-05-19T17:14:13.294Z,12.30
2023-05-19T17:16:47.628Z,13.20
2023-05-19T17:19:22.026Z,14.10
2023-05-19T17:22:15.481Z,13.90
2023-05-19T17:24:49.949Z,12.40
2023-05-19T17:27:38.223Z,12.80
2023-05-19T17:30:15.446Z,12.80
2023-05-19T17:32:50.161Z,13.80
2023-05-19T17:35:26.374Z,13.00
2023-05-19T17:38:02.256Z,13.70
2023-05-19T17:40:37.212Z,14.40
2023-05-19T17:43:11.692Z,14.20
2023-05-19T17:45:46.110Z,14.20
2023-05-19T17:48:22.100Z,14.50
2023-05-19T17:50:57.068Z,16.50
2023-05-19T17:53:33.329Z,14.50
2023-05-19T17:56:12.121Z,14.80
2023-05-19T17:58:49.511Z,17.30
2023-05-19T18:01:26.015Z,12.40
2023-05-19T18:04:02.492Z,14.10
2023-05-19T18:06:40.971Z,17.10
2023-05-19T18:09:18.162Z,15.10
2023-05-19T18:11:52.864Z,15.20
2023-05-19T18:14:29.986Z,17.50
2023-05-19T18:17:05.155Z,17.50
2023-05-19T18:19:39.727Z,14.50
2023-05-19T18:22:15.258Z,13.50
2023-05-19T18:24:50.634Z,13.00
2023-05-19T18:27:25.380Z,12.00
2023-05-19T18:30:15.585Z,14.60
2023-05-19T18:32:52.746Z,15.20
2023-05-19T18:35:28.115Z,14.80
2023-05-19T18:38:02.980Z,14.30
2023-05-19T18:40:44.361Z,14.90
2023-05-19T18:43:19.721Z,13.30
2023-05-19T18:45:54.998Z,13.90
2023-05-19T18:48:33.582Z,14.60
2023-05-19T18:51:09.624Z,13.80
2023-05-19T18:53:45.201Z,14.00
2023-05-19T18:56:28.096Z,15.30
2023-05-19T18:59:03.239Z,14.20
2023-05-19T19:01:39.703Z,12.90
2023-05-19T19:04:17.144Z,15.40
2023-05-19T19:06:53.659Z,16.40
2023-05-19T19:09:28.889Z,14.40
2023-05-19T19:12:04.925Z,13.10
2023-05-19T19:14:42.379Z,14.20
2023-05-19T19:17:18.252Z,12.90
2023-05-19T19:19:53.592Z,15.50
2023-05-19T19:22:29.102Z,13.90
2023-05-19T19:25:04.461Z,16.40
2023-05-19T19:27:39.447Z,12.60
2023-05-19T19:30:15.640Z,11.30
2023-05-19T19:32:50.344Z,12.70
2023-05-19T19:35:24.968Z,12.10
2023-05-19T19:38:00.131Z,11.60
2023-05-19T19:40:35.244Z,11.00
2023-05-19T19:43:10.854Z,16.40
2023-05-19T19:45:45.457Z,11.60
2023-05-19T19:48:20.169Z,11.30
2023-05-19T19:50:58.677Z,13.30
2023-05-19T19:53:33.647Z,12.60
2023-05-19T19:56:08.858Z,12.70
2023-05-19T19:58:43.281Z,11.90
2023-05-19T20:01:20.504Z,13.20
2023-05-19T20:03:56.029Z,13.30
2023-05-19T20:06:31.220Z,12.50
2023-05-19T20:09:05.663Z,13.60
2023-05-19T20:11:40.614Z,10.60
2023-05-19T20:14:15.306Z,12.70
2023-05-19T20:16:49.777Z,12.60
2023-05-19T20:19:25.665Z,11.50
2023-05-19T20:22:00.156Z,10.90
2023-05-19T20:24:35.449Z,11.90
2023-05-19T20:27:10.765Z,12.40
2023-05-19T20:29:47.157Z,14.40
2023-05-19T20:32:21.641Z,14.00
2023-05-19T20:34:56.668Z,13.40
2023-05-19T20:37:31.276Z,13.80
2023-05-19T20:40:06.607Z,16.20
2023-05-19T20:42:44.119Z,13.10
2023-05-19T20:45:18.734Z,15.30
2023-05-19T20:47:53.462Z,13.90
2023-05-19T20:50:27.969Z,14.30
2023-05-19T20:53:02.371Z,14.60
2023-05-19T20:55:38.099Z,15.00
2023-05-19T20:58:12.656Z,14.90
2023-05-19T21:00:47.351Z,15.20
2023-05-19T21:03:23.377Z,15.60
2023-05-19T21:05:59.731Z,16.60
2023-05-19T21:08:34.960Z,18.80
2023-05-19T21:11:09.447Z,17.20
2023-05-19T21:13:43.781Z,18.70
2023-05-19T21:16:18.101Z,18.50
2023-05-19T21:18:53.005Z,15.80
2023-05-19T21:21:27.454Z,15.30
2023-05-19T21:24:02.126Z,18.20
2023-05-19T21:26:36.539Z,15.80
2023-05-19T21:29:11.670Z,18.00
2023-05-19T21:31:46.046Z,18.60
2023-05-19T21:34:20.350Z,20.40
2023-05-19T21:36:54.560Z,18.00
2023-05-19T21:39:28.864Z,17.30
2023-05-19T21:42:03.285Z,20.80
2023-05-19T21:44:37.580Z,18.60
2023-05-19T21:47:11.822Z,21.10
2023-05-19T21:49:46.225Z,19.50
2023-05-19T21:52:23.092Z,22.60
2023-05-19T21:54:58.360Z,21.80
2023-05-19T21:57:34.348Z,21.30
2023-05-19T22:00:13.283Z,20.70
2023-05-19T22:02:47.853Z,21.70
2023-05-19T22:05:22.940Z,23.60
2023-05-19T22:07:57.254Z,24.10
2023-05-19T22:10:31.791Z,22.80
2023-05-19T22:13:06.402Z,24.10
2023-05-19T22:15:41.917Z,24.50
2023-05-19T22:18:17.052Z,24.90
2023-05-19T22:20:51.264Z,25.80
2023-05-19T22:23:25.669Z,25.20
2023-05-19T22:25:59.976Z,24.10
2023-05-19T22:28:34.670Z,24.50
2023-05-19T22:31:09.259Z,24.60
2023-05-19T22:33:43.513Z,23.60
2023-05-19T22:36:17.900Z,25.40
2023-05-19T22:38:52.285Z,24.70
2023-05-19T22:41:26.613Z,26.00
2023-05-19T22:44:00.896Z,26.50
2023-05-19T22:46:36.103Z,26.80
2023-05-19T22:49:10.621Z,25.50
2023-05-19T22:51:45.036Z,24.20
2023-05-19T22:54:19.734Z,24.60
2023-05-19T22:56:54.003Z,25.60
2023-05-19T22:59:28.319Z,27.40
2023-05-19T23:02:02.769Z,25.50
2023-05-19T23:04:37.321Z,24.50
2023-05-19T23:07:11.637Z,23.10
2023-05-19T23:09:45.901Z,23.60
2023-05-19T23:12:20.130Z,28.20
2023-05-19T23:14:54.393Z,26.00
2023-05-19T23:17:28.746Z,24.90
2023-05-19T23:20:05.934Z,25.90
2023-05-19T23:22:40.286Z,24.80
2023-05-19T23:25:14.658Z,23.90
2023-05-19T23:27:48.983Z,23.80
2023-05-19T23:30:23.503Z,28.60
2023-05-19T23:32:57.931Z,22.10
2023-05-19T23:35:32.872Z,25.10
2023-05-19T23:38:07.341Z,24.10
2023-05-19T23:40:41.665Z,28.80
2023-05-19T23:43:16.351Z,24.70
2023-05-19T23:45:50.592Z,25.10
2023-05-19T23:48:24.917Z,25.10
2023-05-19T23:50:59.937Z,27.00
2023-05-19T23:53:34.661Z,22.60
2023-05-19T23:56:09.924Z,26.40
2023-05-19T23:58:44.362Z,27.40
